sensor_id;sensor_type;location;lat;lon;timestamp;temperature;humidity
14057;DHT22;7103;54.300;10.180;2023-02-19T00:01:33;4.20;99.90
14057;DHT22;7103;54.300;10.180;2023-02-19T00:04:15;4.20;99.90
14057;DHT22;7103;54.300;10.180;2023-02-19T00:06:42;4.20;99.90
14057;DHT22;7103;54.300;10.180;2023-02-19T00:09:11;4.20;99.90
14057;DHT22;7103;54.300;10.180;2023-02-19T00:11:39;4.30;99.90
14057;DHT22;7103;54.300;10.180;2023-02-19T00:14:06;4.30;99.90
14057;DHT22;7103;54.300;10.180;2023-02-19T00:16:36;4.30;99.90
14057;DHT22;7103;54.300;10.180;2023-02-19T00:19:05;4.30;99.90
14057;DHT22;7103;54.300;10.180;2023-02-19T00:21:32;4.30;99.90
14057;DHT22;7103;54.300;10.180;2023-02-19T00:24:02;4.40;99.90
14057;DHT22;7103;54.300;10.180;2023-02-19T00:26:30;4.40;99.90
14057;DHT22;7103;54.300;10.180;2023-02-19T00:28:57;4.30;99.90
14057;DHT22;7103;54.300;10.180;2023-02-19T00:31:27;4.30;99.90
14057;DHT22;7103;54.300;10.180;2023-02-19T00:34:03;4.30;99.90
14057;DHT22;7103;54.300;10.180;2023-02-19T00:36:31;4.30;99.90
14057;DHT22;7103;54.300;10.180;2023-02-19T00:38:58;4.40;99.90
14057;DHT22;7103;54.300;10.180;2023-02-19T00:41:26;4.40;99.90
14057;DHT22;7103;54.300;10.180;2023-02-19T00:43:57;4.50;99.90
14057;DHT22;7103;54.300;10.180;2023-02-19T00:46:36;4.30;99.90
14057;DHT22;7103;54.300;10.180;2023-02-19T00:49:04;4.40;99.90
14057;DHT22;7103;54.300;10.180;2023-02-19T00:51:36;4.40;99.90
14057;DHT22;7103;54.300;10.180;2023-02-19T00:54:04;4.40;99.90
14057;DHT22;7103;54.300;10.180;2023-02-19T00:56:32;4.50;99.90
14057;DHT22;7103;54.300;10.180;2023-02-19T00:58:59;4.50;99.90
14057;DHT22;7103;54.300;10.180;2023-02-19T01:01:25;4.40;99.90
14057;DHT22;7103;54.300;10.180;2023-02-19T01:03:52;4.50;99.90
14057;DHT22;7103;54.300;10.180;2023-02-19T01:06:21;4.40;99.90
14057;DHT22;7103;54.300;10.180;2023-02-19T01:08:49;4.40;99.90
14057;DHT22;7103;54.300;10.180;2023-02-19T01:11:16;4.40;99.90
14057;DHT22;7103;54.300;10.180;2023-02-19T01:13:44;4.30;99.90
14057;DHT22;7103;54.300;10.180;2023-02-19T01:16:19;4.40;99.90
14057;DHT22;7103;54.300;10.180;2023-02-19T01:18:47;4.40;99.90
14057;DHT22;7103;54.300;10.180;2023-02-19T01:21:19;4.30;99.90
14057;DHT22;7103;54.300;10.180;2023-02-19T01:23:50;4.40;99.90
14057;DHT22;7103;54.300;10.180;2023-02-19T01:26:20;4.40;99.90
14057;DHT22;7103;54.300;10.180;2023-02-19T01:28:47;4.40;99.90
14057;DHT22;7103;54.300;10.180;2023-02-19T01:31:17;4.30;99.90
14057;DHT22;7103;54.300;10.180;2023-02-19T01:33:50;4.30;99.90
14057;DHT22;7103;54.300;10.180;2023-02-19T01:36:17;4.30;99.90
14057;DHT22;7103;54.300;10.180;2023-02-19T01:38:45;4.30;99.90
14057;DHT22;7103;54.300;10.180;2023-02-19T01:41:23;4.30;99.90
14057;DHT22;7103;54.300;10.180;2023-02-19T01:46:30;4.40;99.90
14057;DHT22;7103;54.300;10.180;2023-02-19T01:49:20;4.40;99.90
14057;DHT22;7103;54.300;10.180;2023-02-19T01:51:59;4.30;99.90
14057;DHT22;7103;54.300;10.180;2023-02-19T01:54:31;4.30;99.90
14057;DHT22;7103;54.300;10.180;2023-02-19T01:56:58;4.30;99.90
14057;DHT22;7103;54.300;10.180;2023-02-19T01:59:27;4.30;99.90
14057;DHT22;7103;54.300;10.180;2023-02-19T02:01:55;4.30;99.90
14057;DHT22;7103;54.300;10.180;2023-02-19T02:04:22;4.30;99.90
14057;DHT22;7103;54.300;10.180;2023-02-19T02:06:52;4.30;99.90
14057;DHT22;7103;54.300;10.180;2023-02-19T02:09:21;4.20;99.90
14057;DHT22;7103;54.300;10.180;2023-02-19T02:12:07;4.20;99.90
14057;DHT22;7103;54.300;10.180;2023-02-19T02:14:37;4.20;99.90
14057;DHT22;7103;54.300;10.180;2023-02-19T02:22:51;4.10;99.90
14057;DHT22;7103;54.300;10.180;2023-02-19T02:30:58;4.10;99.90
14057;DHT22;7103;54.300;10.180;2023-02-19T02:36:22;4.00;99.90
14057;DHT22;7103;54.300;10.180;2023-02-19T02:38:50;4.00;98.10
14057;DHT22;7103;54.300;10.180;2023-02-19T02:41:20;3.90;93.90
14057;DHT22;7103;54.300;10.180;2023-02-19T02:43:46;3.90;91.80
14057;DHT22;7103;54.300;10.180;2023-02-19T02:46:18;3.80;90.20
14057;DHT22;7103;54.300;10.180;2023-02-19T02:48:52;3.80;84.90
14057;DHT22;7103;54.300;10.180;2023-02-19T02:51:33;3.70;79.30
14057;DHT22;7103;54.300;10.180;2023-02-19T02:56:48;3.60;69.10
14057;DHT22;7103;54.300;10.180;2023-02-19T02:59:23;3.60;69.10
14057;DHT22;7103;54.300;10.180;2023-02-19T03:02:18;3.60;69.00
14057;DHT22;7103;54.300;10.180;2023-02-19T03:05:02;3.60;67.50
14057;DHT22;7103;54.300;10.180;2023-02-19T03:08:03;3.50;66.30
14057;DHT22;7103;54.300;10.180;2023-02-19T03:10:38;3.60;64.90
14057;DHT22;7103;54.300;10.180;2023-02-19T03:13:10;3.50;65.50
14057;DHT22;7103;54.300;10.180;2023-02-19T03:16:02;3.50;69.00
14057;DHT22;7103;54.300;10.180;2023-02-19T03:19:11;3.40;68.90
14057;DHT22;7103;54.300;10.180;2023-02-19T03:24:35;3.40;68.90
14057;DHT22;7103;54.300;10.180;2023-02-19T03:27:25;3.40;68.90
14057;DHT22;7103;54.300;10.180;2023-02-19T03:29:56;3.40;68.90
14057;DHT22;7103;54.300;10.180;2023-02-19T03:35:13;3.30;68.80
14057;DHT22;7103;54.300;10.180;2023-02-19T03:37:45;3.20;63.80
14057;DHT22;7103;54.300;10.180;2023-02-19T03:40:15;3.10;62.50
14057;DHT22;7103;54.300;10.180;2023-02-19T03:42:49;3.20;68.70
14057;DHT22;7103;54.300;10.180;2023-02-19T03:48:17;3.20;68.80
14057;DHT22;7103;54.300;10.180;2023-02-19T03:50:49;3.20;68.80
14057;DHT22;7103;54.300;10.180;2023-02-19T03:53:33;3.20;66.60
14057;DHT22;7103;54.300;10.180;2023-02-19T03:56:27;3.10;67.30
14057;DHT22;7103;54.300;10.180;2023-02-19T04:02:00;3.10;71.40
14057;DHT22;7103;54.300;10.180;2023-02-19T04:04:31;3.10;72.90
14057;DHT22;7103;54.300;10.180;2023-02-19T04:07:00;3.10;73.50
14057;DHT22;7103;54.300;10.180;2023-02-19T04:09:32;3.10;68.70
14057;DHT22;7103;54.300;10.180;2023-02-19T04:12:02;3.00;64.80
14057;DHT22;7103;54.300;10.180;2023-02-19T04:14:40;3.10;72.30
14057;DHT22;7103;54.300;10.180;2023-02-19T04:17:15;3.10;63.50
14057;DHT22;7103;54.300;10.180;2023-02-19T04:19:44;3.00;58.10
14057;DHT22;7103;54.300;10.180;2023-02-19T04:22:16;3.00;58.10
14057;DHT22;7103;54.300;10.180;2023-02-19T04:24:48;2.90;51.20
14057;DHT22;7103;54.300;10.180;2023-02-19T04:27:16;2.90;48.30
14057;DHT22;7103;54.300;10.180;2023-02-19T04:29:43;2.90;51.20
14057;DHT22;7103;54.300;10.180;2023-02-19T04:32:11;2.80;46.60
14057;DHT22;7103;54.300;10.180;2023-02-19T04:34:38;2.80;46.60
14057;DHT22;7103;54.300;10.180;2023-02-19T04:37:05;2.70;44.20
14057;DHT22;7103;54.300;10.180;2023-02-19T04:39:32;2.70;43.00
14057;DHT22;7103;54.300;10.180;2023-02-19T04:41:59;2.80;46.60
14057;DHT22;7103;54.300;10.180;2023-02-19T04:44:26;2.90;57.90
14057;DHT22;7103;54.300;10.180;2023-02-19T04:46:53;2.90;58.00
14057;DHT22;7103;54.300;10.180;2023-02-19T04:49:20;2.80;53.30
14057;DHT22;7103;54.300;10.180;2023-02-19T04:51:47;2.80;57.90
14057;DHT22;7103;54.300;10.180;2023-02-19T04:54:14;2.80;57.90
14057;DHT22;7103;54.300;10.180;2023-02-19T04:56:41;2.70;57.80
14057;DHT22;7103;54.300;10.180;2023-02-19T04:59:07;2.70;57.80
14057;DHT22;7103;54.300;10.180;2023-02-19T05:01:35;2.70;57.90
14057;DHT22;7103;54.300;10.180;2023-02-19T05:04:02;2.70;59.50
14057;DHT22;7103;54.300;10.180;2023-02-19T05:06:30;2.60;61.10
14057;DHT22;7103;54.300;10.180;2023-02-19T05:08:57;2.60;63.10
14057;DHT22;7103;54.300;10.180;2023-02-19T05:11:24;2.70;83.30
14057;DHT22;7103;54.300;10.180;2023-02-19T05:13:51;2.60;78.30
14057;DHT22;7103;54.300;10.180;2023-02-19T05:16:18;2.50;78.30
14057;DHT22;7103;54.300;10.180;2023-02-19T05:18:45;2.50;78.30
14057;DHT22;7103;54.300;10.180;2023-02-19T05:21:12;2.50;79.40
14057;DHT22;7103;54.300;10.180;2023-02-19T05:23:40;2.40;79.90
14057;DHT22;7103;54.300;10.180;2023-02-19T05:26:10;2.40;83.10
14057;DHT22;7103;54.300;10.180;2023-02-19T05:28:37;2.40;91.10
14057;DHT22;7103;54.300;10.180;2023-02-19T05:31:06;2.50;95.50
14057;DHT22;7103;54.300;10.180;2023-02-19T05:33:34;2.60;99.90
14057;DHT22;7103;54.300;10.180;2023-02-19T05:36:04;2.60;99.50
14057;DHT22;7103;54.300;10.180;2023-02-19T05:38:32;2.60;99.90
14057;DHT22;7103;54.300;10.180;2023-02-19T05:41:10;2.60;99.60
14057;DHT22;7103;54.300;10.180;2023-02-19T05:43:38;2.60;99.90
14057;DHT22;7103;54.300;10.180;2023-02-19T05:46:06;2.70;99.90
14057;DHT22;7103;54.300;10.180;2023-02-19T05:48:33;2.50;99.90
14057;DHT22;7103;54.300;10.180;2023-02-19T05:51:02;2.50;99.50
14057;DHT22;7103;54.300;10.180;2023-02-19T05:53:30;2.40;97.50
14057;DHT22;7103;54.300;10.180;2023-02-19T05:55:57;2.30;98.10
14057;DHT22;7103;54.300;10.180;2023-02-19T05:58:25;2.30;98.20
14057;DHT22;7103;54.300;10.180;2023-02-19T06:00:53;2.30;98.60
14057;DHT22;7103;54.300;10.180;2023-02-19T06:03:21;2.30;99.50
14057;DHT22;7103;54.300;10.180;2023-02-19T06:05:48;2.40;99.90
14057;DHT22;7103;54.300;10.180;2023-02-19T06:08:15;2.50;99.90
14057;DHT22;7103;54.300;10.180;2023-02-19T06:10:42;2.60;99.90
14057;DHT22;7103;54.300;10.180;2023-02-19T06:13:09;2.60;99.90
14057;DHT22;7103;54.300;10.180;2023-02-19T06:15:37;2.60;99.90
14057;DHT22;7103;54.300;10.180;2023-02-19T06:18:03;2.60;99.90
14057;DHT22;7103;54.300;10.180;2023-02-19T06:20:30;2.60;99.90
14057;DHT22;7103;54.300;10.180;2023-02-19T06:22:58;2.60;99.90
14057;DHT22;7103;54.300;10.180;2023-02-19T06:25:25;2.60;99.90
14057;DHT22;7103;54.300;10.180;2023-02-19T06:27:52;2.70;99.90
14057;DHT22;7103;54.300;10.180;2023-02-19T06:30:19;2.70;99.90
14057;DHT22;7103;54.300;10.180;2023-02-19T06:32:46;2.70;97.60
14057;DHT22;7103;54.300;10.180;2023-02-19T06:35:13;2.70;98.60
14057;DHT22;7103;54.300;10.180;2023-02-19T06:37:39;2.80;97.60
14057;DHT22;7103;54.300;10.180;2023-02-19T06:40:07;2.80;99.60
14057;DHT22;7103;54.300;10.180;2023-02-19T06:42:34;2.80;95.00
14057;DHT22;7103;54.300;10.180;2023-02-19T06:45:00;2.80;91.00
14057;DHT22;7103;54.300;10.180;2023-02-19T06:47:30;2.80;78.60
14057;DHT22;7103;54.300;10.180;2023-02-19T06:49:58;2.70;68.30
14057;DHT22;7103;54.300;10.180;2023-02-19T06:52:26;2.70;68.30
14057;DHT22;7103;54.300;10.180;2023-02-19T06:54:53;2.70;63.30
14057;DHT22;7103;54.300;10.180;2023-02-19T06:57:20;2.80;58.00
14057;DHT22;7103;54.300;10.180;2023-02-19T06:59:47;2.90;74.10
14057;DHT22;7103;54.300;10.180;2023-02-19T07:02:14;2.90;51.50
14057;DHT22;7103;54.300;10.180;2023-02-19T07:04:41;2.80;34.90
14057;DHT22;7103;54.300;10.180;2023-02-19T07:07:10;2.80;24.40
14057;DHT22;7103;54.300;10.180;2023-02-19T07:09:37;2.90;14.80
14057;DHT22;7103;54.300;10.180;2023-02-19T07:12:04;2.90;1.00
14057;DHT22;7103;54.300;10.180;2023-02-19T07:14:31;2.90;1.00
14057;DHT22;7103;54.300;10.180;2023-02-19T07:16:58;2.80;1.00
14057;DHT22;7103;54.300;10.180;2023-02-19T07:19:25;2.90;1.00
14057;DHT22;7103;54.300;10.180;2023-02-19T07:21:52;2.90;1.00
14057;DHT22;7103;54.300;10.180;2023-02-19T07:24:18;2.80;1.00
14057;DHT22;7103;54.300;10.180;2023-02-19T07:26:47;2.80;1.00
14057;DHT22;7103;54.300;10.180;2023-02-19T07:29:14;2.90;1.00
14057;DHT22;7103;54.300;10.180;2023-02-19T07:31:41;2.90;1.00
14057;DHT22;7103;54.300;10.180;2023-02-19T07:34:08;2.80;1.00
14057;DHT22;7103;54.300;10.180;2023-02-19T07:36:35;2.90;1.00
14057;DHT22;7103;54.300;10.180;2023-02-19T07:39:02;2.80;1.00
14057;DHT22;7103;54.300;10.180;2023-02-19T07:41:29;2.70;1.00
14057;DHT22;7103;54.300;10.180;2023-02-19T07:43:57;2.70;1.00
14057;DHT22;7103;54.300;10.180;2023-02-19T07:46:24;2.80;1.00
14057;DHT22;7103;54.300;10.180;2023-02-19T07:48:51;2.80;1.00
14057;DHT22;7103;54.300;10.180;2023-02-19T07:51:18;2.90;1.00
14057;DHT22;7103;54.300;10.180;2023-02-19T07:53:47;3.00;1.00
14057;DHT22;7103;54.300;10.180;2023-02-19T07:56:16;3.00;1.00
14057;DHT22;7103;54.300;10.180;2023-02-19T07:58:43;3.00;1.00
14057;DHT22;7103;54.300;10.180;2023-02-19T08:01:17;2.90;1.00
14057;DHT22;7103;54.300;10.180;2023-02-19T08:03:44;3.10;1.00
14057;DHT22;7103;54.300;10.180;2023-02-19T08:06:14;3.10;1.00
14057;DHT22;7103;54.300;10.180;2023-02-19T08:08:41;3.10;1.00
14057;DHT22;7103;54.300;10.180;2023-02-19T08:11:08;3.10;1.00
14057;DHT22;7103;54.300;10.180;2023-02-19T08:13:54;3.10;1.00
14057;DHT22;7103;54.300;10.180;2023-02-19T08:16:21;3.30;1.00
14057;DHT22;7103;54.300;10.180;2023-02-19T08:19:07;3.30;1.00
14057;DHT22;7103;54.300;10.180;2023-02-19T08:21:34;3.30;1.00
14057;DHT22;7103;54.300;10.180;2023-02-19T08:24:01;3.40;1.00
14057;DHT22;7103;54.300;10.180;2023-02-19T08:26:28;3.50;1.00
14057;DHT22;7103;54.300;10.180;2023-02-19T08:28:55;3.50;1.00
14057;DHT22;7103;54.300;10.180;2023-02-19T08:31:22;3.70;1.00
14057;DHT22;7103;54.300;10.180;2023-02-19T08:33:49;3.60;1.00
14057;DHT22;7103;54.300;10.180;2023-02-19T08:36:16;3.60;1.00
14057;DHT22;7103;54.300;10.180;2023-02-19T08:38:42;3.80;1.00
14057;DHT22;7103;54.300;10.180;2023-02-19T08:41:11;3.80;1.00
14057;DHT22;7103;54.300;10.180;2023-02-19T08:43:40;3.70;1.00
14057;DHT22;7103;54.300;10.180;2023-02-19T08:46:08;3.70;1.00
14057;DHT22;7103;54.300;10.180;2023-02-19T08:48:36;3.80;1.00
14057;DHT22;7103;54.300;10.180;2023-02-19T08:51:06;3.90;1.00
14057;DHT22;7103;54.300;10.180;2023-02-19T08:53:38;4.00;1.00
14057;DHT22;7103;54.300;10.180;2023-02-19T08:56:06;4.10;1.00
14057;DHT22;7103;54.300;10.180;2023-02-19T08:58:34;4.10;1.00
14057;DHT22;7103;54.300;10.180;2023-02-19T09:01:02;4.30;1.00
14057;DHT22;7103;54.300;10.180;2023-02-19T09:03:29;4.60;1.00
14057;DHT22;7103;54.300;10.180;2023-02-19T09:05:55;5.00;1.00
14057;DHT22;7103;54.300;10.180;2023-02-19T09:08:22;5.30;1.00
14057;DHT22;7103;54.300;10.180;2023-02-19T09:11:00;5.40;1.00
14057;DHT22;7103;54.300;10.180;2023-02-19T09:13:27;5.80;99.90
14057;DHT22;7103;54.300;10.180;2023-02-19T09:15:54;6.40;99.90
14057;DHT22;7103;54.300;10.180;2023-02-19T09:18:24;7.40;99.90
14057;DHT22;7103;54.300;10.180;2023-02-19T09:20:51;8.20;99.90
14057;DHT22;7103;54.300;10.180;2023-02-19T09:23:18;8.70;99.90
14057;DHT22;7103;54.300;10.180;2023-02-19T09:25:45;9.10;99.90
14057;DHT22;7103;54.300;10.180;2023-02-19T09:28:12;9.60;99.90
14057;DHT22;7103;54.300;10.180;2023-02-19T09:30:38;10.20;98.50
14057;DHT22;7103;54.300;10.180;2023-02-19T09:33:05;10.50;50.70
14057;DHT22;7103;54.300;10.180;2023-02-19T09:35:32;10.70;5.80
14057;DHT22;7103;54.300;10.180;2023-02-19T09:37:59;10.60;1.00
14057;DHT22;7103;54.300;10.180;2023-02-19T09:40:29;10.70;1.00
14057;DHT22;7103;54.300;10.180;2023-02-19T09:42:56;10.70;1.00
14057;DHT22;7103;54.300;10.180;2023-02-19T09:45:24;10.80;1.00
14057;DHT22;7103;54.300;10.180;2023-02-19T09:47:54;10.70;1.00
14057;DHT22;7103;54.300;10.180;2023-02-19T09:50:32;10.80;1.00
14057;DHT22;7103;54.300;10.180;2023-02-19T09:53:03;10.80;1.00
14057;DHT22;7103;54.300;10.180;2023-02-19T09:55:40;10.80;1.00
14057;DHT22;7103;54.300;10.180;2023-02-19T09:58:33;10.80;1.00
14057;DHT22;7103;54.300;10.180;2023-02-19T10:01:03;10.80;1.00
14057;DHT22;7103;54.300;10.180;2023-02-19T10:03:34;10.60;1.00
14057;DHT22;7103;54.300;10.180;2023-02-19T10:06:06;10.50;1.00
14057;DHT22;7103;54.300;10.180;2023-02-19T10:08:39;10.40;1.00
14057;DHT22;7103;54.300;10.180;2023-02-19T10:11:11;10.70;1.00
14057;DHT22;7103;54.300;10.180;2023-02-19T10:13:42;10.50;1.00
14057;DHT22;7103;54.300;10.180;2023-02-19T10:16:14;10.50;1.00
14057;DHT22;7103;54.300;10.180;2023-02-19T10:18:44;10.40;1.00
14057;DHT22;7103;54.300;10.180;2023-02-19T10:21:24;10.20;1.00
14057;DHT22;7103;54.300;10.180;2023-02-19T10:24:00;10.20;1.00
14057;DHT22;7103;54.300;10.180;2023-02-19T10:26:28;10.00;1.00
14057;DHT22;7103;54.300;10.180;2023-02-19T10:29:01;10.10;1.00
14057;DHT22;7103;54.300;10.180;2023-02-19T10:31:30;10.30;1.00
14057;DHT22;7103;54.300;10.180;2023-02-19T10:34:00;10.40;1.00
14057;DHT22;7103;54.300;10.180;2023-02-19T10:36:32;10.30;1.00
14057;DHT22;7103;54.300;10.180;2023-02-19T10:39:02;10.10;1.00
14057;DHT22;7103;54.300;10.180;2023-02-19T10:41:31;9.90;1.00
14057;DHT22;7103;54.300;10.180;2023-02-19T10:44:06;9.90;1.00
14057;DHT22;7103;54.300;10.180;2023-02-19T10:46:40;9.70;1.00
14057;DHT22;7103;54.300;10.180;2023-02-19T10:49:38;9.70;1.00
14057;DHT22;7103;54.300;10.180;2023-02-19T10:52:19;9.80;1.00
14057;DHT22;7103;54.300;10.180;2023-02-19T10:54:52;9.60;1.00
14057;DHT22;7103;54.300;10.180;2023-02-19T10:57:29;9.50;1.00
14057;DHT22;7103;54.300;10.180;2023-02-19T10:59:59;9.60;1.00
14057;DHT22;7103;54.300;10.180;2023-02-19T11:02:30;9.50;1.00
14057;DHT22;7103;54.300;10.180;2023-02-19T11:07:55;9.80;1.00
14057;DHT22;7103;54.300;10.180;2023-02-19T11:10:27;10.10;1.00
14057;DHT22;7103;54.300;10.180;2023-02-19T11:12:57;10.40;1.00
14057;DHT22;7103;54.300;10.180;2023-02-19T11:15:30;10.20;1.00
14057;DHT22;7103;54.300;10.180;2023-02-19T11:21:00;10.00;1.00
14057;DHT22;7103;54.300;10.180;2023-02-19T11:23:29;10.10;1.00
14057;DHT22;7103;54.300;10.180;2023-02-19T11:26:02;10.20;1.00
14057;DHT22;7103;54.300;10.180;2023-02-19T11:28:39;10.10;1.00
14057;DHT22;7103;54.300;10.180;2023-02-19T11:33:57;9.90;1.00
14057;DHT22;7103;54.300;10.180;2023-02-19T11:36:35;9.80;1.00
14057;DHT22;7103;54.300;10.180;2023-02-19T11:44:51;9.80;1.00
14057;DHT22;7103;54.300;10.180;2023-02-19T11:59:03;9.50;1.00
14057;DHT22;7103;54.300;10.180;2023-02-19T12:07:30;9.20;1.00
14057;DHT22;7103;54.300;10.180;2023-02-19T12:16:22;9.20;1.00
14057;DHT22;7103;54.300;10.180;2023-02-19T12:19:37;9.00;1.00
14057;DHT22;7103;54.300;10.180;2023-02-19T12:22:19;9.10;1.00
14057;DHT22;7103;54.300;10.180;2023-02-19T12:38:44;9.50;1.00
14057;DHT22;7103;54.300;10.180;2023-02-19T12:41:35;9.40;1.00
14057;DHT22;7103;54.300;10.180;2023-02-19T12:44:18;9.20;1.00
14057;DHT22;7103;54.300;10.180;2023-02-19T12:46:52;9.00;1.00
14057;DHT22;7103;54.300;10.180;2023-02-19T12:49:27;9.00;1.00
14057;DHT22;7103;54.300;10.180;2023-02-19T12:54:39;9.10;1.00
14057;DHT22;7103;54.300;10.180;2023-02-19T12:57:21;9.00;1.00
14057;DHT22;7103;54.300;10.180;2023-02-19T13:00:02;9.10;1.00
14057;DHT22;7103;54.300;10.180;2023-02-19T13:02:47;9.10;1.00
14057;DHT22;7103;54.300;10.180;2023-02-19T13:07:58;8.90;1.00
14057;DHT22;7103;54.300;10.180;2023-02-19T13:10:49;8.90;1.00
14057;DHT22;7103;54.300;10.180;2023-02-19T13:13:42;8.90;1.00
14057;DHT22;7103;54.300;10.180;2023-02-19T13:16:13;8.90;1.00
14057;DHT22;7103;54.300;10.180;2023-02-19T13:18:55;9.00;1.00
14057;DHT22;7103;54.300;10.180;2023-02-19T13:21:26;9.00;1.00
14057;DHT22;7103;54.300;10.180;2023-02-19T13:24:33;8.90;1.00
14057;DHT22;7103;54.300;10.180;2023-02-19T13:29:55;8.90;1.00
14057;DHT22;7103;54.300;10.180;2023-02-19T13:37:47;8.70;1.00
14057;DHT22;7103;54.300;10.180;2023-02-19T13:40:33;8.50;1.00
14057;DHT22;7103;54.300;10.180;2023-02-19T13:43:28;8.50;1.00
14057;DHT22;7103;54.300;10.180;2023-02-19T13:45:58;8.50;1.00
14057;DHT22;7103;54.300;10.180;2023-02-19T13:48:35;8.50;1.00
14057;DHT22;7103;54.300;10.180;2023-02-19T13:54:00;8.40;1.00
14057;DHT22;7103;54.300;10.180;2023-02-19T13:59:35;8.40;1.00
14057;DHT22;7103;54.300;10.180;2023-02-19T14:05:00;8.40;1.00
14057;DHT22;7103;54.300;10.180;2023-02-19T14:10:01;8.40;1.00
14057;DHT22;7103;54.300;10.180;2023-02-19T14:12:36;8.40;1.00
14057;DHT22;7103;54.300;10.180;2023-02-19T14:15:43;8.40;1.00
14057;DHT22;7103;54.300;10.180;2023-02-19T14:18:40;8.40;1.00
14057;DHT22;7103;54.300;10.180;2023-02-19T14:21:24;8.40;1.00
14057;DHT22;7103;54.300;10.180;2023-02-19T14:23:56;8.20;1.00
14057;DHT22;7103;54.300;10.180;2023-02-19T14:26:25;8.10;1.00
14057;DHT22;7103;54.300;10.180;2023-02-19T14:28:53;8.10;1.00
14057;DHT22;7103;54.300;10.180;2023-02-19T14:31:27;8.00;1.00
14057;DHT22;7103;54.300;10.180;2023-02-19T14:33:58;7.90;1.00
14057;DHT22;7103;54.300;10.180;2023-02-19T14:41:24;7.70;1.00
14057;DHT22;7103;54.300;10.180;2023-02-19T14:43:55;7.60;1.00
14057;DHT22;7103;54.300;10.180;2023-02-19T14:46:38;7.60;1.00
14057;DHT22;7103;54.300;10.180;2023-02-19T14:49:29;7.60;1.00
14057;DHT22;7103;54.300;10.180;2023-02-19T14:52:05;7.50;1.00
14057;DHT22;7103;54.300;10.180;2023-02-19T14:57:24;7.50;1.00
14057;DHT22;7103;54.300;10.180;2023-02-19T15:00:00;7.50;1.00
14057;DHT22;7103;54.300;10.180;2023-02-19T15:02:30;7.50;1.00
14057;DHT22;7103;54.300;10.180;2023-02-19T15:04:57;7.50;1.00
14057;DHT22;7103;54.300;10.180;2023-02-19T15:07:27;7.40;1.00
14057;DHT22;7103;54.300;10.180;2023-02-19T15:09:58;7.40;1.00
14057;DHT22;7103;54.300;10.180;2023-02-19T15:12:43;7.30;1.00
14057;DHT22;7103;54.300;10.180;2023-02-19T15:15:26;7.40;1.00
14057;DHT22;7103;54.300;10.180;2023-02-19T15:17:56;7.40;1.00
14057;DHT22;7103;54.300;10.180;2023-02-19T15:20:25;7.40;1.00
14057;DHT22;7103;54.300;10.180;2023-02-19T15:22:54;7.30;1.00
14057;DHT22;7103;54.300;10.180;2023-02-19T15:25:23;7.30;1.00
14057;DHT22;7103;54.300;10.180;2023-02-19T15:27:52;7.30;1.00
14057;DHT22;7103;54.300;10.180;2023-02-19T15:30:23;7.40;1.00
14057;DHT22;7103;54.300;10.180;2023-02-19T15:33:00;7.20;1.00
14057;DHT22;7103;54.300;10.180;2023-02-19T15:35:28;7.20;1.00
14057;DHT22;7103;54.300;10.180;2023-02-19T15:37:55;7.30;1.00
14057;DHT22;7103;54.300;10.180;2023-02-19T15:40:29;7.00;1.00
14057;DHT22;7103;54.300;10.180;2023-02-19T15:42:58;7.00;1.00
14057;DHT22;7103;54.300;10.180;2023-02-19T15:45:36;6.90;1.00
14057;DHT22;7103;54.300;10.180;2023-02-19T15:50:38;6.80;1.00
14057;DHT22;7103;54.300;10.180;2023-02-19T15:53:22;6.90;1.00
14057;DHT22;7103;54.300;10.180;2023-02-19T15:56:14;6.70;1.00
14057;DHT22;7103;54.300;10.180;2023-02-19T16:01:39;6.60;1.00
14057;DHT22;7103;54.300;10.180;2023-02-19T16:04:12;6.60;1.00
14057;DHT22;7103;54.300;10.180;2023-02-19T16:06:57;6.70;1.00
14057;DHT22;7103;54.300;10.180;2023-02-19T16:09:34;6.60;1.00
14057;DHT22;7103;54.300;10.180;2023-02-19T16:12:15;6.50;1.00
14057;DHT22;7103;54.300;10.180;2023-02-19T16:14:43;6.50;1.00
14057;DHT22;7103;54.300;10.180;2023-02-19T16:19:52;6.50;1.00
14057;DHT22;7103;54.300;10.180;2023-02-19T16:22:22;6.40;1.00
14057;DHT22;7103;54.300;10.180;2023-02-19T16:24:56;6.40;1.00
14057;DHT22;7103;54.300;10.180;2023-02-19T16:29:57;6.30;1.00
14057;DHT22;7103;54.300;10.180;2023-02-19T16:32:24;6.40;1.00
14057;DHT22;7103;54.300;10.180;2023-02-19T16:34:51;6.40;1.00
14057;DHT22;7103;54.300;10.180;2023-02-19T16:45:16;6.30;1.00
14057;DHT22;7103;54.300;10.180;2023-02-19T16:47:43;6.40;1.00
14057;DHT22;7103;54.300;10.180;2023-02-19T16:50:22;6.40;1.00
14057;DHT22;7103;54.300;10.180;2023-02-19T16:55:16;6.40;1.00
14057;DHT22;7103;54.300;10.180;2023-02-19T16:57:43;6.20;1.00
14057;DHT22;7103;54.300;10.180;2023-02-19T17:00:21;6.10;1.00
14057;DHT22;7103;54.300;10.180;2023-02-19T17:02:50;6.10;1.00
14057;DHT22;7103;54.300;10.180;2023-02-19T17:05:19;6.10;1.00
14057;DHT22;7103;54.300;10.180;2023-02-19T17:07:47;6.00;1.00
14057;DHT22;7103;54.300;10.180;2023-02-19T17:10:26;6.00;1.00
14057;DHT22;7103;54.300;10.180;2023-02-19T17:12:54;5.90;1.00
14057;DHT22;7103;54.300;10.180;2023-02-19T17:15:22;5.90;1.00
14057;DHT22;7103;54.300;10.180;2023-02-19T17:17:49;5.90;1.00
14057;DHT22;7103;54.300;10.180;2023-02-19T17:20:22;6.10;1.00
14057;DHT22;7103;54.300;10.180;2023-02-19T17:22:54;6.10;1.00
14057;DHT22;7103;54.300;10.180;2023-02-19T17:25:21;5.90;1.00
14057;DHT22;7103;54.300;10.180;2023-02-19T17:27:48;5.90;1.00
14057;DHT22;7103;54.300;10.180;2023-02-19T17:30:33;5.80;1.00
14057;DHT22;7103;54.300;10.180;2023-02-19T17:33:00;5.80;1.00
14057;DHT22;7103;54.300;10.180;2023-02-19T17:35:27;5.90;1.00
14057;DHT22;7103;54.300;10.180;2023-02-19T17:37:54;5.80;1.00
14057;DHT22;7103;54.300;10.180;2023-02-19T17:40:31;5.80;1.00
14057;DHT22;7103;54.300;10.180;2023-02-19T17:43:00;5.80;1.00
14057;DHT22;7103;54.300;10.180;2023-02-19T17:45:27;5.80;1.00
14057;DHT22;7103;54.300;10.180;2023-02-19T17:47:54;5.80;1.00
14057;DHT22;7103;54.300;10.180;2023-02-19T17:50:23;5.70;1.00
14057;DHT22;7103;54.300;10.180;2023-02-19T17:52:51;5.80;1.00
14057;DHT22;7103;54.300;10.180;2023-02-19T17:55:18;5.70;1.00
14057;DHT22;7103;54.300;10.180;2023-02-19T17:57:46;5.80;1.00
14057;DHT22;7103;54.300;10.180;2023-02-19T18:00:15;5.70;1.00
14057;DHT22;7103;54.300;10.180;2023-02-19T18:02:42;5.70;1.00
14057;DHT22;7103;54.300;10.180;2023-02-19T18:05:09;5.70;1.00
14057;DHT22;7103;54.300;10.180;2023-02-19T18:07:36;5.70;1.00
14057;DHT22;7103;54.300;10.180;2023-02-19T18:10:05;5.70;1.00
14057;DHT22;7103;54.300;10.180;2023-02-19T18:12:32;5.70;1.00
14057;DHT22;7103;54.300;10.180;2023-02-19T18:14:59;5.70;1.00
14057;DHT22;7103;54.300;10.180;2023-02-19T18:17:26;5.70;1.00
14057;DHT22;7103;54.300;10.180;2023-02-19T18:19:53;5.80;1.00
14057;DHT22;7103;54.300;10.180;2023-02-19T18:22:20;5.70;1.00
14057;DHT22;7103;54.300;10.180;2023-02-19T18:24:49;5.70;1.00
14057;DHT22;7103;54.300;10.180;2023-02-19T18:27:17;5.60;1.00
14057;DHT22;7103;54.300;10.180;2023-02-19T18:29:55;5.60;1.00
14057;DHT22;7103;54.300;10.180;2023-02-19T18:32:23;5.60;8.30
14057;DHT22;7103;54.300;10.180;2023-02-19T18:34:51;5.60;16.10
14057;DHT22;7103;54.300;10.180;2023-02-19T18:37:19;5.60;19.00